createdAt,value
2018-12-03T00:01:02.571Z,12.37
2018-12-03T00:03:32.336Z,12.37
2018-12-03T00:06:02.103Z,12.25
2018-12-03T00:11:28.455Z,12.36
2018-12-03T00:13:58.493Z,12.46
2018-12-03T00:16:28.673Z,12.58
2018-12-03T00:18:58.769Z,12.62
2018-12-03T00:21:28.523Z,12.77
2018-12-03T00:23:58.319Z,12.85
2018-12-03T00:26:28.552Z,12.94
2018-12-03T00:28:58.351Z,12.96
2018-12-03T00:31:28.196Z,12.98
2018-12-03T00:33:58.008Z,13.04
2018-12-03T00:36:27.819Z,13.08
2018-12-03T00:38:57.849Z,13.21
2018-12-03T00:41:27.677Z,13.35
2018-12-03T00:43:57.466Z,13.49
2018-12-03T00:46:27.237Z,13.42
2018-12-03T00:48:56.979Z,13.66
2018-12-03T00:51:26.762Z,13.72
2018-12-03T00:53:56.654Z,13.62
2018-12-03T00:56:26.427Z,13.60
2018-12-03T00:58:56.202Z,13.53
2018-12-03T01:01:34.666Z,13.46
2018-12-03T01:04:05.306Z,13.42
2018-12-03T01:09:30.648Z,13.32
2018-12-03T01:12:00.436Z,13.22
2018-12-03T01:14:30.478Z,13.22
2018-12-03T01:17:00.264Z,13.21
2018-12-03T01:19:30.002Z,13.28
2018-12-03T01:21:59.841Z,13.29
2018-12-03T01:24:29.898Z,13.31
2018-12-03T01:26:59.672Z,13.31
2018-12-03T01:29:29.408Z,13.31
2018-12-03T01:31:59.513Z,13.28
2018-12-03T01:34:29.289Z,13.28
2018-12-03T01:36:59.381Z,13.26
2018-12-03T01:39:29.128Z,13.26
2018-12-03T01:41:59.169Z,13.28
2018-12-03T01:44:28.908Z,13.29
2018-12-03T01:46:58.705Z,13.27
2018-12-03T01:49:28.691Z,13.30
2018-12-03T01:51:58.493Z,13.29
2018-12-03T01:54:28.251Z,13.30
2018-12-03T01:56:57.986Z,13.28
2018-12-03T01:59:27.739Z,13.25
2018-12-03T02:01:57.512Z,13.17
2018-12-03T02:04:27.827Z,13.15
2018-12-03T02:06:57.593Z,13.12
2018-12-03T02:09:27.347Z,13.05
2018-12-03T02:11:57.112Z,13.12
2018-12-03T02:14:26.874Z,13.10
2018-12-03T02:16:56.622Z,13.05
2018-12-03T02:19:26.390Z,13.01
2018-12-03T02:21:56.188Z,12.96
2018-12-03T02:24:25.952Z,12.91
2018-12-03T02:26:55.963Z,12.88
2018-12-03T02:29:26.003Z,12.77
2018-12-03T02:31:55.811Z,12.69
2018-12-03T02:34:25.635Z,12.66
2018-12-03T02:36:55.391Z,12.65
2018-12-03T02:39:25.403Z,12.58
2018-12-03T02:41:55.566Z,12.55
2018-12-03T02:44:25.348Z,12.56
2018-12-03T02:46:55.105Z,12.52
2018-12-03T02:49:24.861Z,12.50
2018-12-03T02:51:54.694Z,12.55
2018-12-03T02:54:24.539Z,12.59
2018-12-03T02:56:54.306Z,12.62
2018-12-03T02:59:24.073Z,12.71
2018-12-03T03:01:53.820Z,12.74
2018-12-03T03:04:23.685Z,12.74
2018-12-03T03:06:53.441Z,12.74
2018-12-03T03:09:23.499Z,12.75
2018-12-03T03:11:53.577Z,12.79
2018-12-03T03:14:23.355Z,12.80
2018-12-03T03:16:53.097Z,12.95
2018-12-03T03:19:22.892Z,12.99
2018-12-03T03:21:52.622Z,13.03
2018-12-03T03:24:22.408Z,13.01
2018-12-03T03:26:52.420Z,12.98
2018-12-03T03:29:22.180Z,12.93
2018-12-03T03:31:51.921Z,12.94
2018-12-03T03:34:21.976Z,12.99
2018-12-03T03:36:51.723Z,13.12
2018-12-03T03:39:21.472Z,13.03
2018-12-03T03:41:51.326Z,12.86
2018-12-03T03:44:21.096Z,12.73
2018-12-03T03:46:50.854Z,12.65
2018-12-03T03:49:20.653Z,12.61
2018-12-03T03:51:50.414Z,12.57
2018-12-03T03:54:25.278Z,12.65
2018-12-03T03:56:51.848Z,12.68
2018-12-03T04:05:14.922Z,12.68
2018-12-03T04:07:45.769Z,12.61
2018-12-03T04:10:16.094Z,12.63
2018-12-03T04:12:46.764Z,12.63
2018-12-03T04:15:17.255Z,12.68
2018-12-03T04:17:47.032Z,12.67
2018-12-03T04:20:20.618Z,12.64
2018-12-03T04:23:09.991Z,12.62
2018-12-03T04:25:39.759Z,12.66
2018-12-03T04:28:09.509Z,12.81
2018-12-03T04:30:39.279Z,12.93
2018-12-03T04:33:09.048Z,12.95
2018-12-03T04:35:38.822Z,12.92
2018-12-03T04:38:08.586Z,12.92
2018-12-03T04:40:38.343Z,12.93
2018-12-03T04:43:08.374Z,13.09
2018-12-03T04:45:38.217Z,13.01
2018-12-03T04:48:07.999Z,12.79
2018-12-03T04:50:37.761Z,12.58
2018-12-03T04:53:07.549Z,12.55
2018-12-03T04:55:37.324Z,12.51
2018-12-03T04:58:07.448Z,12.58
2018-12-03T05:00:37.263Z,12.67
2018-12-03T05:03:07.415Z,12.77
2018-12-03T05:05:40.336Z,12.77
2018-12-03T05:08:10.125Z,12.80
2018-12-03T05:10:39.888Z,12.82
2018-12-03T05:13:09.873Z,12.80
2018-12-03T05:15:39.613Z,12.78
2018-12-03T05:18:09.388Z,12.72
2018-12-03T05:20:39.129Z,12.77
2018-12-03T05:23:09.297Z,12.73
2018-12-03T05:25:39.283Z,12.77
2018-12-03T05:28:09.108Z,12.73
2018-12-03T05:30:39.105Z,12.70
2018-12-03T05:33:08.916Z,12.62
2018-12-03T05:35:38.658Z,12.66
2018-12-03T05:38:08.803Z,12.65
2018-12-03T05:40:38.569Z,12.73
2018-12-03T05:43:08.398Z,12.75
2018-12-03T05:45:38.138Z,12.76
2018-12-03T05:48:08.092Z,12.76
2018-12-03T05:50:37.877Z,12.82
2018-12-03T05:53:07.237Z,12.88
2018-12-03T05:55:36.982Z,12.96
2018-12-03T05:58:06.782Z,13.04
2018-12-03T06:00:36.540Z,12.98
2018-12-03T06:03:06.546Z,12.86
2018-12-03T06:05:36.296Z,12.80
2018-12-03T06:08:06.545Z,12.76
2018-12-03T06:10:36.634Z,12.81
2018-12-03T06:13:06.518Z,12.86
2018-12-03T06:15:36.291Z,12.91
2018-12-03T06:18:06.038Z,12.94
2018-12-03T06:20:35.880Z,12.93
2018-12-03T06:23:05.623Z,12.92
2018-12-03T06:25:35.400Z,13.03
2018-12-03T06:28:05.144Z,13.03
2018-12-03T06:30:34.983Z,13.16
2018-12-03T06:36:14.024Z,13.25
2018-12-03T06:38:43.825Z,13.28
2018-12-03T06:41:13.608Z,13.27
2018-12-03T06:43:43.358Z,13.15
2018-12-03T06:46:13.134Z,13.10
2018-12-03T06:48:42.951Z,13.06
2018-12-03T06:51:13.032Z,13.03
2018-12-03T06:53:43.089Z,13.04
2018-12-03T06:56:12.884Z,13.09
2018-12-03T06:58:43.044Z,13.04
2018-12-03T07:04:09.095Z,12.97
2018-12-03T07:06:38.958Z,12.97
2018-12-03T07:09:11.606Z,12.92
2018-12-03T07:11:41.628Z,12.84
2018-12-03T07:14:11.450Z,12.84
2018-12-03T07:16:41.238Z,12.97
2018-12-03T07:19:10.985Z,13.09
2018-12-03T07:21:41.045Z,13.08
2018-12-03T07:24:10.947Z,13.13
2018-12-03T07:26:40.717Z,13.07
2018-12-03T07:29:10.446Z,13.06
2018-12-03T07:31:40.235Z,13.01
2018-12-03T07:34:09.973Z,12.96
2018-12-03T07:36:39.748Z,12.88
2018-12-03T07:39:09.653Z,12.90
2018-12-03T07:41:39.404Z,12.95
2018-12-03T07:44:09.526Z,12.98
2018-12-03T07:46:39.567Z,12.96
2018-12-03T07:49:09.382Z,12.96
2018-12-03T07:51:39.424Z,12.93
2018-12-03T07:54:09.201Z,12.90
2018-12-03T07:56:38.979Z,12.80
2018-12-03T07:59:08.730Z,12.80
2018-12-03T08:01:38.514Z,12.85
2018-12-03T08:04:08.292Z,12.88
2018-12-03T08:06:38.092Z,12.86
2018-12-03T08:09:10.011Z,12.90
2018-12-03T08:11:39.765Z,12.92
2018-12-03T08:14:09.516Z,12.90
2018-12-03T08:16:39.285Z,12.89
2018-12-03T08:19:09.069Z,12.83
2018-12-03T08:21:39.088Z,12.73
2018-12-03T08:24:11.070Z,12.66
2018-12-03T08:26:40.825Z,12.56
2018-12-03T08:29:10.564Z,12.53
2018-12-03T08:31:40.344Z,12.61
2018-12-03T08:34:10.103Z,12.56
2018-12-03T08:36:39.902Z,12.44
2018-12-03T08:39:11.855Z,12.38
2018-12-03T08:41:41.905Z,12.36
2018-12-03T08:44:12.108Z,12.24
2018-12-03T08:46:42.169Z,12.11
2018-12-03T08:49:11.940Z,12.12
2018-12-03T08:51:41.778Z,12.03
2018-12-03T08:54:11.527Z,12.11
2018-12-03T08:57:22.644Z,12.09
2018-12-03T08:59:52.374Z,12.03
2018-12-03T09:02:22.560Z,12.12
2018-12-03T09:04:53.968Z,12.16
2018-12-03T09:07:23.726Z,12.22
2018-12-03T09:09:53.493Z,12.21
2018-12-03T09:12:23.256Z,12.15
2018-12-03T09:14:53.350Z,12.17
2018-12-03T09:17:41.996Z,12.15
2018-12-03T09:20:11.753Z,12.18
2018-12-03T09:22:41.893Z,12.15
2018-12-03T09:28:18.923Z,12.20
2018-12-03T09:30:53.790Z,12.22
2018-12-03T09:33:27.547Z,12.30
2018-12-03T09:35:58.528Z,12.44
2018-12-03T09:38:28.933Z,12.55
2018-12-03T09:41:18.070Z,12.63
2018-12-03T09:43:48.123Z,12.65
2018-12-03T09:46:57.130Z,12.70
2018-12-03T09:49:28.027Z,12.81
2018-12-03T09:51:58.482Z,12.99
2018-12-03T09:54:28.488Z,13.06
2018-12-03T09:56:58.558Z,13.23
2018-12-03T09:59:30.704Z,13.36
2018-12-03T10:02:02.878Z,13.39
2018-12-03T10:04:55.526Z,13.38
2018-12-03T10:07:25.293Z,13.38
2018-12-03T10:09:55.044Z,13.46
2018-12-03T10:12:24.876Z,13.46
2018-12-03T10:14:54.634Z,13.45
2018-12-03T10:17:24.432Z,13.45
2018-12-03T10:19:54.470Z,13.42
2018-12-03T10:22:24.464Z,13.42
2018-12-03T10:24:54.300Z,13.46
2018-12-03T10:27:24.367Z,13.47
2018-12-03T10:29:54.146Z,13.45
2018-12-03T10:32:23.910Z,13.44
2018-12-03T10:34:53.726Z,13.45
2018-12-03T10:37:23.962Z,13.50
2018-12-03T10:39:54.052Z,13.50
2018-12-03T10:42:23.802Z,13.58
2018-12-03T10:44:53.600Z,13.59
2018-12-03T10:47:23.676Z,13.55
2018-12-03T10:49:53.420Z,13.55
2018-12-03T10:52:24.479Z,13.54
2018-12-03T10:54:54.627Z,13.56
2018-12-03T10:57:24.961Z,13.68
2018-12-03T10:59:56.487Z,13.75
2018-12-03T11:03:03.803Z,13.75
2018-12-03T11:06:13.151Z,13.78
2018-12-03T11:14:34.982Z,13.94
2018-12-03T11:17:04.748Z,14.00
2018-12-03T11:19:34.638Z,14.03
2018-12-03T11:25:15.678Z,14.38
2018-12-03T11:27:48.302Z,14.59
2018-12-03T11:30:18.145Z,14.69
2018-12-03T11:32:47.950Z,14.54
2018-12-03T11:35:27.028Z,14.45
2018-12-03T11:38:36.190Z,14.48
2018-12-03T11:41:06.251Z,14.42
2018-12-03T11:43:36.021Z,14.49
2018-12-03T11:46:05.799Z,14.41
2018-12-03T11:48:35.618Z,14.28
2018-12-03T11:51:05.675Z,14.19
2018-12-03T11:53:35.419Z,14.16
2018-12-03T11:56:05.230Z,14.19
2018-12-03T11:58:34.983Z,14.22
2018-12-03T12:01:05.083Z,14.28
2018-12-03T12:03:42.693Z,14.31
2018-12-03T12:06:52.747Z,14.26
2018-12-03T12:09:22.495Z,14.25
2018-12-03T12:11:52.575Z,14.09
2018-12-03T12:14:24.277Z,14.03
2018-12-03T12:16:54.087Z,13.97
2018-12-03T12:19:24.164Z,13.90
2018-12-03T12:21:54.220Z,13.71
2018-12-03T12:24:24.087Z,13.63
2018-12-03T12:26:55.234Z,13.51
2018-12-03T12:29:25.336Z,13.38
2018-12-03T12:35:04.379Z,13.38
2018-12-03T12:37:34.137Z,13.33
2018-12-03T12:40:03.944Z,13.33
2018-12-03T12:42:33.688Z,13.25
2018-12-03T12:45:03.574Z,13.24
2018-12-03T12:47:33.603Z,13.22
2018-12-03T12:52:41.703Z,13.03
2018-12-03T12:55:30.941Z,12.82
2018-12-03T12:58:05.010Z,12.82
2018-12-03T13:00:35.073Z,12.71
2018-12-03T13:03:04.869Z,12.62
2018-12-03T13:05:34.662Z,12.55
2018-12-03T13:08:04.441Z,12.51
2018-12-03T13:10:34.233Z,12.57
2018-12-03T13:13:04.010Z,12.46
2018-12-03T13:15:33.802Z,12.37
2018-12-03T13:18:03.882Z,12.41
2018-12-03T13:20:33.736Z,12.35
2018-12-03T13:23:03.895Z,12.30
2018-12-03T13:25:34.040Z,12.31
2018-12-03T13:28:03.815Z,12.34
2018-12-03T13:30:33.593Z,12.30
2018-12-03T13:36:12.636Z,12.22
2018-12-03T13:38:42.400Z,12.14
2018-12-03T13:41:12.184Z,12.08
2018-12-03T13:43:41.938Z,12.05
2018-12-03T13:46:11.738Z,12.08
2018-12-03T13:48:41.526Z,12.16
2018-12-03T13:51:11.350Z,12.16
2018-12-03T13:53:41.155Z,12.18
2018-12-03T13:56:11.253Z,12.26
2018-12-03T13:58:41.035Z,12.32
2018-12-03T14:01:11.218Z,12.26
2018-12-03T14:03:42.223Z,12.23
2018-12-03T14:06:49.756Z,12.25
2018-12-03T14:09:57.835Z,12.21
2018-12-03T14:12:48.733Z,12.21
2018-12-03T14:15:56.226Z,12.24
2018-12-03T14:18:46.847Z,12.19
2018-12-03T14:21:40.135Z,12.17
2018-12-03T14:24:28.782Z,12.22
2018-12-03T14:26:58.754Z,12.24
2018-12-03T14:29:28.847Z,12.21
2018-12-03T14:31:58.611Z,12.23
2018-12-03T14:34:29.479Z,12.19
2018-12-03T14:37:19.956Z,12.18
2018-12-03T14:39:49.762Z,12.19
2018-12-03T14:42:19.583Z,12.18
2018-12-03T14:44:49.391Z,12.16
2018-12-03T14:47:19.155Z,12.21
2018-12-03T14:49:48.940Z,12.28
2018-12-03T14:52:19.326Z,12.26
2018-12-03T14:54:49.122Z,12.33
2018-12-03T14:57:18.931Z,12.40
2018-12-03T15:03:16.335Z,12.47
2018-12-03T15:05:58.681Z,12.54
2018-12-03T15:08:17.869Z,12.53
2018-12-03T15:10:47.925Z,12.58
2018-12-03T15:13:18.457Z,12.62
2018-12-03T15:15:48.685Z,12.57
2018-12-03T15:18:18.575Z,12.51
2018-12-03T15:20:51.470Z,12.55
2018-12-03T15:23:22.899Z,12.53
2018-12-03T15:25:52.803Z,12.53
2018-12-03T15:28:23.032Z,12.50
2018-12-03T15:30:52.797Z,12.49
2018-12-03T15:33:22.651Z,12.51
2018-12-03T15:35:52.447Z,12.52
2018-12-03T15:38:22.685Z,12.54
2018-12-03T15:43:43.978Z,12.38
2018-12-03T15:46:13.772Z,12.34
2018-12-03T15:48:44.066Z,12.18
2018-12-03T15:51:13.847Z,12.13
2018-12-03T15:53:43.935Z,12.22
2018-12-03T15:56:32.573Z,12.25
2018-12-03T15:59:02.375Z,12.26
2018-12-03T16:01:32.443Z,12.29
2018-12-03T16:04:02.287Z,12.28
2018-12-03T16:06:32.175Z,12.22
2018-12-03T16:09:01.987Z,12.18
2018-12-03T16:11:31.836Z,12.16
2018-12-03T16:14:02.131Z,12.14
2018-12-03T16:16:31.970Z,12.14
2018-12-03T16:19:01.992Z,12.16
2018-12-03T16:21:32.565Z,12.12
2018-12-03T16:24:03.070Z,12.07
2018-12-03T16:26:32.821Z,12.08
2018-12-03T16:29:02.751Z,12.09
2018-12-03T16:31:32.512Z,12.07
2018-12-03T16:34:02.628Z,12.16
2018-12-03T16:36:32.747Z,12.19
2018-12-03T16:39:02.853Z,12.14
2018-12-03T16:41:32.523Z,12.11
2018-12-03T16:44:02.742Z,12.11
2018-12-03T16:46:32.505Z,12.12
2018-12-03T16:49:02.572Z,12.10
2018-12-03T16:51:32.359Z,12.11
2018-12-03T16:54:02.536Z,12.18
2018-12-03T16:56:32.278Z,12.21
2018-12-03T16:59:02.061Z,12.28
2018-12-03T17:01:52.239Z,12.30
2018-12-03T17:04:22.187Z,12.25
2018-12-03T17:06:52.026Z,12.22
2018-12-03T17:09:22.204Z,12.25
2018-12-03T17:12:31.571Z,12.24
2018-12-03T17:15:20.263Z,12.21
2018-12-03T17:17:50.089Z,12.20
2018-12-03T17:23:44.955Z,12.10
2018-12-03T17:37:20.550Z,12.26
2018-12-03T17:39:50.342Z,12.29
2018-12-03T17:42:20.196Z,12.35
2018-12-03T17:47:45.217Z,12.40
2018-12-03T17:50:14.995Z,12.57
2018-12-03T17:52:44.844Z,12.56
2018-12-03T18:19:46.884Z,12.66
2018-12-03T18:22:17.033Z,12.65
2018-12-03T18:49:36.292Z,12.56
2018-12-03T18:52:07.333Z,12.56
2018-12-03T18:54:40.306Z,12.43
2018-12-03T19:05:33.795Z,12.31
2018-12-03T19:08:03.839Z,12.33
2018-12-03T19:10:33.626Z,12.30
2018-12-03T19:13:03.457Z,12.29
2018-12-03T19:15:33.768Z,12.25
2018-12-03T19:18:03.532Z,12.25
2018-12-03T19:23:09.132Z,12.43
2018-12-03T19:25:38.975Z,12.43
2018-12-03T19:28:08.750Z,12.34
2018-12-03T19:30:38.543Z,12.38
2018-12-03T19:33:08.869Z,12.33
2018-12-03T19:35:38.952Z,12.35
2018-12-03T19:38:08.828Z,12.25
2018-12-03T19:40:38.601Z,12.24
2018-12-03T19:43:08.483Z,12.26
2018-12-03T19:45:38.276Z,12.32
2018-12-03T19:48:07.965Z,12.33
2018-12-03T19:50:37.763Z,12.45
2018-12-03T19:53:07.541Z,12.48
2018-12-03T20:06:26.047Z,12.43
2018-12-03T20:08:55.808Z,12.39
2018-12-03T20:11:25.623Z,12.26
2018-12-03T20:13:55.388Z,12.22
2018-12-03T20:16:25.206Z,12.22
2018-12-03T20:18:54.985Z,12.19
2018-12-03T20:37:53.475Z,12.37
2018-12-03T21:02:07.762Z,12.30
2018-12-03T21:04:37.661Z,12.30
2018-12-03T21:07:07.675Z,12.37
2018-12-03T21:09:38.629Z,12.34
2018-12-03T21:12:09.687Z,12.35
2018-12-03T21:28:04.116Z,12.36
2018-12-03T21:30:36.807Z,12.40
2018-12-03T21:33:25.481Z,12.46
2018-12-03T21:35:55.502Z,12.47
2018-12-03T21:38:59.402Z,12.47
2018-12-03T22:19:51.361Z,12.06
2018-12-03T22:27:32.302Z,11.97
2018-12-03T22:30:05.693Z,11.96
2018-12-03T22:32:36.280Z,11.87
2018-12-03T22:35:06.595Z,11.88
2018-12-03T22:37:39.336Z,11.84
2018-12-03T22:40:09.186Z,11.85
2018-12-03T22:45:09.656Z,11.82
2018-12-03T22:47:58.843Z,11.82
2018-12-03T22:50:28.884Z,11.75
2018-12-03T22:52:59.018Z,11.74
2018-12-03T22:55:28.896Z,11.71
2018-12-03T22:57:58.934Z,11.73
2018-12-03T23:03:26.131Z,11.82
2018-12-03T23:05:55.919Z,11.80
2018-12-03T23:08:25.701Z,11.75
2018-12-03T23:11:02.932Z,11.75
2018-12-03T23:13:32.955Z,11.74
2018-12-03T23:16:02.729Z,11.80
2018-12-03T23:18:32.488Z,11.78
2018-12-03T23:21:02.355Z,11.76
2018-12-03T23:23:34.861Z,11.78
2018-12-03T23:26:04.631Z,11.73
2018-12-03T23:28:34.406Z,11.73
2018-12-03T23:31:04.174Z,11.72
2018-12-03T23:33:33.938Z,11.71
2018-12-03T23:36:03.716Z,11.77
2018-12-03T23:38:33.459Z,11.73
2018-12-03T23:41:03.264Z,11.71
2018-12-03T23:43:33.037Z,11.72
2018-12-03T23:46:02.803Z,11.70
2018-12-03T23:48:32.589Z,11.62
2018-12-03T23:51:02.912Z,11.58
2018-12-03T23:53:32.676Z,11.57
2018-12-03T23:56:02.464Z,11.51
2018-12-03T23:58:32.294Z,11.48
